createdAt,value
2023-01-02T00:00:28.353Z,18.55
2023-01-02T00:03:14.431Z,18.64
2023-01-02T00:06:04.526Z,18.63
2023-01-02T00:08:50.544Z,19.20
2023-01-02T00:11:36.752Z,18.97
2023-01-02T00:14:22.120Z,19.54
2023-01-02T00:17:07.428Z,19.77
2023-01-02T00:19:52.826Z,19.71
2023-01-02T00:22:39.039Z,19.01
2023-01-02T00:25:24.736Z,18.77
2023-01-02T00:28:10.159Z,19.04
2023-01-02T00:30:57.802Z,19.42
2023-01-02T00:33:44.036Z,19.58
2023-01-02T00:36:30.749Z,19.47
2023-01-02T00:39:16.647Z,19.87
2023-01-02T00:42:02.063Z,19.54
2023-01-02T00:44:47.389Z,19.94
2023-01-02T00:47:32.823Z,19.78
2023-01-02T00:50:18.851Z,20.01
2023-01-02T00:53:04.258Z,20.04
2023-01-02T00:55:49.822Z,19.97
2023-01-02T00:58:35.576Z,19.75
2023-01-02T01:01:21.375Z,19.45
2023-01-02T01:04:07.183Z,19.62
2023-01-02T01:06:52.502Z,19.56
2023-01-02T01:09:38.171Z,19.66
2023-01-02T01:12:23.569Z,18.83
2023-01-02T01:15:09.640Z,19.41
2023-01-02T01:17:55.042Z,19.11
2023-01-02T01:20:40.487Z,18.70
2023-01-02T01:23:25.912Z,19.09
2023-01-02T01:26:13.480Z,19.12
2023-01-02T01:28:59.384Z,19.24
2023-01-02T01:31:44.772Z,18.84
2023-01-02T01:34:30.589Z,19.09
2023-01-02T01:37:16.201Z,19.18
2023-01-02T01:40:01.712Z,19.28
2023-01-02T01:42:50.277Z,19.12
2023-01-02T01:45:36.292Z,19.24
2023-01-02T01:48:22.025Z,18.85
2023-01-02T01:51:07.886Z,18.03
2023-01-02T01:54:07.180Z,18.59
2023-01-02T01:56:58.196Z,18.97
2023-01-02T01:59:44.214Z,18.51
2023-01-02T02:02:32.672Z,18.52
2023-01-02T02:05:24.404Z,18.39
2023-01-02T02:08:47.962Z,17.43
2023-01-02T02:11:33.865Z,17.29
2023-01-02T02:14:19.595Z,16.34
2023-01-02T02:17:42.858Z,16.63
2023-01-02T02:20:44.679Z,17.29
2023-01-02T02:23:33.169Z,16.75
2023-01-02T02:26:33.939Z,16.37
2023-01-02T02:29:40.779Z,16.36
2023-01-02T02:32:41.000Z,17.31
2023-01-02T02:35:48.750Z,17.19
2023-01-02T02:39:01.931Z,16.74
2023-01-02T02:42:13.413Z,16.15
2023-01-02T02:45:11.909Z,15.89
2023-01-02T02:48:47.232Z,16.78
2023-01-02T02:52:03.332Z,17.06
2023-01-02T02:55:15.249Z,17.57
2023-01-02T02:58:01.979Z,17.46
2023-01-02T03:00:47.727Z,17.49
2023-01-02T03:03:34.462Z,17.91
2023-01-02T03:06:46.032Z,17.56
2023-01-02T03:09:54.767Z,17.62
2023-01-02T03:12:55.453Z,17.92
2023-01-02T03:15:58.925Z,17.67
2023-01-02T03:19:20.407Z,17.85
2023-01-02T03:22:26.542Z,18.16
2023-01-02T03:25:14.546Z,18.43
2023-01-02T03:28:04.369Z,18.31
2023-01-02T03:30:57.591Z,17.80
2023-01-02T03:33:51.998Z,17.05
2023-01-02T03:36:40.541Z,17.46
2023-01-02T03:39:32.590Z,18.13
2023-01-02T03:42:30.223Z,18.26
2023-01-02T03:45:33.634Z,18.31
2023-01-02T03:49:05.627Z,18.69
2023-01-02T03:51:51.680Z,18.83
2023-01-02T03:54:38.518Z,18.21
2023-01-02T03:57:57.419Z,17.71
2023-01-02T04:01:04.797Z,17.68
2023-01-02T04:03:57.895Z,18.20
2023-01-02T04:06:51.335Z,18.11
2023-01-02T04:09:39.579Z,18.07
2023-01-02T04:12:28.005Z,17.71
2023-01-02T04:15:16.839Z,17.52
2023-01-02T04:18:12.544Z,17.74
2023-01-02T04:21:06.728Z,17.22
2023-01-02T04:24:17.684Z,17.75
2023-01-02T04:27:40.936Z,17.10
2023-01-02T04:30:29.905Z,17.27
2023-01-02T04:33:19.738Z,17.62
2023-01-02T04:36:11.583Z,16.92
2023-01-02T04:38:57.091Z,17.09
2023-01-02T04:41:42.760Z,17.19
2023-01-02T04:44:28.609Z,17.01
2023-01-02T04:47:19.847Z,16.63
2023-01-02T04:50:08.946Z,17.23
2023-01-02T04:52:54.366Z,16.72
2023-01-02T04:55:40.078Z,17.42
2023-01-02T04:58:28.071Z,16.59
2023-01-02T05:01:17.299Z,16.71
2023-01-02T05:04:02.877Z,16.29
2023-01-02T05:06:48.454Z,16.35
2023-01-02T05:09:33.841Z,16.90
2023-01-02T05:12:19.263Z,16.80
2023-01-02T05:15:07.273Z,16.95
2023-01-02T05:17:52.668Z,15.80
2023-01-02T05:20:38.236Z,16.29
2023-01-02T05:23:42.919Z,16.56
2023-01-02T05:26:30.777Z,16.59
2023-01-02T05:29:16.611Z,16.76
2023-01-02T05:32:02.333Z,16.55
2023-01-02T05:34:47.881Z,16.57
2023-01-02T05:37:33.228Z,15.93
2023-01-02T05:40:18.667Z,15.75
2023-01-02T05:43:04.112Z,16.45
2023-01-02T05:45:49.494Z,17.03
2023-01-02T05:48:35.547Z,16.45
2023-01-02T05:51:20.913Z,16.42
2023-01-02T05:54:06.815Z,15.43
2023-01-02T05:56:52.584Z,15.82
2023-01-02T05:59:38.389Z,15.40
2023-01-02T06:02:24.182Z,15.20
2023-01-02T06:05:10.198Z,14.88
2023-01-02T06:07:56.210Z,14.70
2023-01-02T06:10:52.545Z,14.95
2023-01-02T06:13:39.383Z,14.44
2023-01-02T06:16:25.967Z,15.02
2023-01-02T06:19:11.714Z,14.61
2023-01-02T06:21:57.064Z,14.42
2023-01-02T06:24:42.526Z,15.11
2023-01-02T06:27:27.905Z,14.15
2023-01-02T06:30:13.925Z,14.09
2023-01-02T06:32:59.495Z,14.97
2023-01-02T06:35:45.138Z,14.43
2023-01-02T06:38:31.201Z,13.82
2023-01-02T06:41:17.878Z,14.35
2023-01-02T06:44:03.514Z,14.53
2023-01-02T06:46:49.101Z,14.97
2023-01-02T06:49:34.910Z,14.67
2023-01-02T06:52:20.895Z,14.55
2023-01-02T06:55:06.878Z,14.24
2023-01-02T06:57:52.898Z,14.29
2023-01-02T07:00:38.395Z,13.49
2023-01-02T07:03:23.773Z,14.48
2023-01-02T07:06:16.224Z,15.36
2023-01-02T07:09:01.852Z,15.31
2023-01-02T07:11:47.768Z,14.79
2023-01-02T07:14:33.238Z,14.06
2023-01-02T07:17:18.783Z,14.32
2023-01-02T07:20:04.585Z,14.49
2023-01-02T07:22:54.562Z,14.27
2023-01-02T07:25:44.360Z,14.61
2023-01-02T07:28:31.610Z,14.21
2023-01-02T07:31:19.457Z,15.06
2023-01-02T07:34:05.623Z,15.06
2023-01-02T07:36:51.360Z,15.03
2023-01-02T07:39:36.781Z,14.69
2023-01-02T07:42:22.276Z,16.00
2023-01-02T07:45:08.800Z,15.53
2023-01-02T07:47:54.139Z,15.22
2023-01-02T07:50:39.718Z,15.35
2023-01-02T07:53:25.512Z,15.46
2023-01-02T07:56:11.001Z,15.65
2023-01-02T07:58:56.972Z,14.97
2023-01-02T08:01:42.565Z,15.11
2023-01-02T08:04:28.350Z,14.81
2023-01-02T08:07:14.290Z,15.62
2023-01-02T08:10:00.120Z,14.80
2023-01-02T08:12:46.125Z,15.37
2023-01-02T08:15:32.219Z,16.34
2023-01-02T08:18:17.956Z,16.38
2023-01-02T08:21:04.441Z,17.02
2023-01-02T08:23:50.185Z,17.18
2023-01-02T08:26:35.673Z,17.44
2023-01-02T08:29:21.041Z,17.92
2023-01-02T08:32:06.639Z,17.93
2023-01-02T08:34:52.407Z,17.98
2023-01-02T08:37:37.968Z,17.52
2023-01-02T08:40:23.855Z,18.45
2023-01-02T08:43:09.580Z,18.51
2023-01-02T08:45:55.889Z,18.25
2023-01-02T08:48:41.776Z,19.06
2023-01-02T08:51:27.938Z,18.75
2023-01-02T08:54:13.815Z,19.15
2023-01-02T08:56:59.210Z,19.04
2023-01-02T08:59:45.135Z,18.89
2023-01-02T09:02:30.876Z,19.40
2023-01-02T09:05:16.308Z,18.44
2023-01-02T09:08:02.826Z,17.69
2023-01-02T09:10:48.188Z,18.20
2023-01-02T09:13:33.636Z,18.79
2023-01-02T09:16:19.720Z,19.39
2023-01-02T09:19:05.617Z,19.23
2023-01-02T09:21:51.175Z,19.29
2023-01-02T09:24:36.598Z,19.52
2023-01-02T09:27:22.103Z,19.47
2023-01-02T09:30:08.124Z,19.41
2023-01-02T09:32:54.467Z,18.64
2023-01-02T09:35:40.156Z,18.71
2023-01-02T09:38:25.609Z,18.50
2023-01-02T09:41:32.106Z,18.11
2023-01-02T09:44:37.295Z,18.01
2023-01-02T09:47:29.493Z,18.78
2023-01-02T09:50:24.882Z,19.02
2023-01-02T09:53:12.131Z,18.39
2023-01-02T09:56:19.344Z,18.81
2023-01-02T09:59:39.289Z,19.53
2023-01-02T10:03:15.981Z,19.18
2023-01-02T10:06:24.883Z,19.14
2023-01-02T10:10:07.864Z,19.61
2023-01-02T10:14:17.275Z,19.53
2023-01-02T10:16:55.363Z,20.22
2023-01-02T10:20:04.923Z,19.83
2023-01-02T10:22:56.065Z,20.01
2023-01-02T10:26:10.701Z,19.31
2023-01-02T10:29:19.252Z,19.62
2023-01-02T10:32:15.564Z,19.64
2023-01-02T10:35:07.163Z,19.43
2023-01-02T10:37:56.328Z,20.04
2023-01-02T10:40:46.767Z,19.70
2023-01-02T10:43:35.029Z,20.23
2023-01-02T10:46:20.925Z,20.38
2023-01-02T10:49:10.119Z,19.72
2023-01-02T10:52:07.672Z,20.03
2023-01-02T10:55:00.049Z,19.87
2023-01-02T10:57:51.511Z,19.44
2023-01-02T11:00:37.333Z,20.05
2023-01-02T11:03:27.516Z,20.20
2023-01-02T11:06:38.831Z,20.18
2023-01-02T11:09:34.286Z,18.90
2023-01-02T11:12:25.455Z,19.70
2023-01-02T11:15:14.510Z,20.03
2023-01-02T11:18:02.627Z,19.53
2023-01-02T11:20:53.482Z,19.26
2023-01-02T11:23:43.280Z,19.22
2023-01-02T11:26:30.680Z,19.86
2023-01-02T11:29:30.292Z,19.94
2023-01-02T11:32:35.750Z,19.18
2023-01-02T11:35:52.185Z,19.53
2023-01-02T11:38:56.707Z,20.68
2023-01-02T11:42:26.901Z,19.27
2023-01-02T11:45:18.608Z,19.86
2023-01-02T11:48:20.994Z,19.55
2023-01-02T11:51:21.349Z,20.38
2023-01-02T11:54:14.586Z,19.87
2023-01-02T11:57:00.884Z,20.24
2023-01-02T11:59:49.069Z,20.87
2023-01-02T12:02:41.799Z,21.05
2023-01-02T12:05:49.557Z,20.33
2023-01-02T12:09:05.165Z,20.52
2023-01-02T12:12:20.020Z,19.54
2023-01-02T12:15:45.661Z,19.26
2023-01-02T12:19:17.350Z,19.48
2023-01-02T12:22:37.158Z,18.87
2023-01-02T12:25:40.734Z,19.21
2023-01-02T12:28:51.964Z,19.65
2023-01-02T12:32:20.426Z,18.25
2023-01-02T12:35:31.305Z,18.35
2023-01-02T12:38:59.761Z,19.08
2023-01-02T12:42:26.600Z,19.38
2023-01-02T12:46:08.702Z,18.57
2023-01-02T12:49:38.914Z,19.20
2023-01-02T12:53:13.820Z,18.33
2023-01-02T12:56:41.707Z,19.44
2023-01-02T13:00:14.423Z,18.77
2023-01-02T13:03:36.505Z,19.20
2023-01-02T13:06:59.859Z,19.28
2023-01-02T13:09:45.904Z,18.92
2023-01-02T13:12:34.871Z,18.66
2023-01-02T13:15:25.504Z,18.68
2023-01-02T13:18:25.810Z,17.73
2023-01-02T13:21:32.601Z,19.09
2023-01-02T13:24:24.218Z,18.85
2023-01-02T13:27:11.631Z,19.32
2023-01-02T13:30:02.021Z,19.76
2023-01-02T13:32:48.234Z,19.57
2023-01-02T13:35:38.325Z,19.45
2023-01-02T13:38:29.174Z,19.54
2023-01-02T13:41:17.611Z,19.06
2023-01-02T13:44:03.307Z,19.07
2023-01-02T13:47:03.216Z,19.94
2023-01-02T13:49:56.110Z,19.88
2023-01-02T13:52:53.768Z,20.57
2023-01-02T13:55:42.379Z,20.02
2023-01-02T13:59:06.477Z,19.44
2023-01-02T14:02:20.183Z,19.42
2023-01-02T14:05:59.350Z,19.95
2023-01-02T14:09:05.332Z,19.68
2023-01-02T14:11:59.885Z,19.39
2023-01-02T14:14:50.432Z,19.39
2023-01-02T14:18:04.462Z,19.08
2023-01-02T14:20:49.990Z,19.46
2023-01-02T14:24:17.614Z,19.28
2023-01-02T14:27:26.553Z,19.63
2023-01-02T14:30:14.869Z,19.59
2023-01-02T14:33:01.975Z,19.24
2023-01-02T14:35:58.618Z,20.34
2023-01-02T14:38:55.458Z,20.61
2023-01-02T14:42:31.119Z,20.46
2023-01-02T14:45:23.826Z,20.35
2023-01-02T14:48:15.835Z,20.59
2023-01-02T14:51:17.007Z,20.08
2023-01-02T14:54:28.427Z,20.53
2023-01-02T14:57:30.673Z,19.67
2023-01-02T15:00:42.538Z,19.75
2023-01-02T15:03:40.485Z,19.07
2023-01-02T15:06:36.269Z,19.38
2023-01-02T15:09:33.960Z,19.48
2023-01-02T15:12:48.596Z,18.66
2023-01-02T15:15:50.728Z,19.50
2023-01-02T15:18:37.451Z,19.37
2023-01-02T15:21:28.933Z,19.26
2023-01-02T15:24:32.849Z,18.74
2023-01-02T15:27:33.920Z,19.08
2023-01-02T15:30:38.526Z,18.92
2023-01-02T15:33:30.145Z,17.89
2023-01-02T15:36:32.071Z,18.89
2023-01-02T15:39:27.976Z,18.57
2023-01-02T15:42:42.144Z,18.83
2023-01-02T15:45:29.641Z,18.81
2023-01-02T15:48:16.364Z,18.40
2023-01-02T15:51:03.430Z,18.70
2023-01-02T15:53:59.910Z,18.10
2023-01-02T15:56:49.412Z,18.48
2023-01-02T15:59:38.744Z,18.37
2023-01-02T16:02:43.567Z,18.67
2023-01-02T16:05:30.891Z,18.65
2023-01-02T16:08:24.017Z,18.94
2023-01-02T16:11:15.449Z,18.83
2023-01-02T16:14:20.994Z,18.79
2023-01-02T16:17:11.487Z,18.85
2023-01-02T16:20:26.890Z,18.63
2023-01-02T16:23:20.587Z,18.63
2023-01-02T16:26:10.130Z,18.89
2023-01-02T16:28:56.241Z,18.64
2023-01-02T16:32:00.856Z,18.58
2023-01-02T16:34:57.660Z,18.69
2023-01-02T16:37:55.675Z,18.46
2023-01-02T16:41:01.296Z,18.90
2023-01-02T16:43:48.337Z,19.02
2023-01-02T16:46:34.244Z,19.08
2023-01-02T16:49:23.241Z,18.69
2023-01-02T16:52:10.451Z,18.92
2023-01-02T16:54:56.105Z,19.27
2023-01-02T16:57:42.056Z,18.48
2023-01-02T17:00:27.544Z,18.98
2023-01-02T17:03:23.352Z,18.42
2023-01-02T17:06:16.112Z,19.37
2023-01-02T17:09:01.646Z,19.12
2023-01-02T17:12:00.422Z,18.76
2023-01-02T17:14:46.337Z,18.30
2023-01-02T17:17:31.772Z,18.39
2023-01-02T17:20:17.550Z,18.87
2023-01-02T17:23:05.236Z,18.82
2023-01-02T17:25:50.901Z,18.57
2023-01-02T17:28:36.920Z,18.60
2023-01-02T17:31:25.708Z,18.83
2023-01-02T17:34:11.858Z,18.32
2023-01-02T17:36:58.159Z,18.35
2023-01-02T17:39:44.492Z,17.50
2023-01-02T17:42:31.136Z,-140.73
2023-01-02T17:45:16.775Z,-140.73
2023-01-02T17:48:10.665Z,-140.73
2023-01-02T17:50:57.947Z,-140.73
2023-01-02T17:53:44.648Z,-140.73
2023-01-02T17:56:31.859Z,-140.73
2023-01-02T17:59:19.651Z,-140.73
2023-01-02T18:09:29.083Z,15.88
2023-01-02T18:12:14.677Z,16.35
2023-01-02T18:15:09.494Z,16.87
2023-01-02T18:17:55.612Z,16.75
2023-01-02T18:20:41.501Z,16.81
2023-01-02T18:23:26.762Z,17.16
2023-01-02T18:26:15.727Z,17.11
2023-01-02T18:29:09.832Z,17.34
2023-01-02T18:31:55.872Z,17.51
2023-01-02T18:34:48.113Z,17.11
2023-01-02T18:37:35.087Z,17.40
2023-01-02T18:40:28.173Z,17.72
2023-01-02T18:43:19.980Z,17.34
2023-01-02T18:47:02.391Z,17.71
2023-01-02T18:49:45.415Z,17.56
2023-01-02T18:52:32.903Z,17.10
2023-01-02T18:55:28.439Z,17.36
2023-01-02T18:58:43.358Z,17.51
2023-01-02T19:01:44.841Z,16.95
2023-01-02T19:04:36.703Z,17.28
2023-01-02T19:07:34.804Z,17.43
2023-01-02T19:10:41.054Z,17.63
2023-01-02T19:13:35.130Z,17.22
2023-01-02T19:16:20.782Z,17.85
2023-01-02T19:19:24.749Z,17.13
2023-01-02T19:22:24.128Z,17.54
2023-01-02T19:25:23.749Z,17.74
2023-01-02T19:28:29.032Z,17.84
2023-01-02T19:31:15.407Z,18.08
